Time;durP1;ratioP1;P1;durP2;ratioP2;P2;SDS_P1;SDS_P2;PMS_P1;PMS_P2;Temp;Humidity;BMP_temperature;BMP_pressure;BME280_temperature;BME280_humidity;BME280_pressure;Samples;Min_cycle;Max_cycle;Signal;HPM_P1;HPM_P2
2024/03/04 00:00:46;;;;;;;;;;;;;;;8.82;68.48;99424.31;5073007;28;20465;-83
2024/03/04 00:03:11;;;;;;;;;;;;;;;8.76;68.86;99430.25;5072871;28;20355;-82
2024/03/04 00:05:36;;;;;;;;;;;;;;;8.76;69.19;99426.81;5073178;28;20007;-82
2024/03/04 00:08:02;;;;;;;;;;;;;;;8.76;69.14;99432.06;5073274;28;19998;-83
2024/03/04 00:10:29;;;;;;;;;;;;;;;8.71;68.77;99429.94;5073056;28;19920;-82
2024/03/04 00:12:55;;;;;;;;;;;;;;;8.67;69.99;99428.63;5073220;28;19912;-82
2024/03/04 00:15:20;;;;;;;;;;;;;;;8.62;69.70;99433.59;5072962;28;19924;-83
2024/03/04 00:17:46;;;;;;;;;;;;;;;8.62;70.87;99435.41;5072833;28;20397;-82
2024/03/04 00:20:11;;;;;;;;;;;;;;;8.60;69.57;99432.94;5072849;28;20007;-83
2024/03/04 00:22:36;;;;;;;;;;;;;;;8.62;69.22;99436.22;5072968;28;19913;-83
2024/03/04 00:25:05;;;;;;;;;;;;;;;8.55;71.05;99435.25;5071572;28;19916;-83
2024/03/04 00:27:30;;;;;;;;;;;;;;;8.56;69.31;99429.00;5072735;28;19955;-82
2024/03/04 00:29:56;;;;;;;;;;;;;;;8.52;69.50;99425.88;5072718;28;20351;-82
2024/03/04 00:32:21;;;;;;;;;;;;;;;8.47;71.58;99440.53;5073003;28;19938;-82
2024/03/04 00:34:47;;;;;;;;;;;;;;;8.45;71.55;99434.59;5074671;28;19923;-83
2024/03/04 00:37:12;;;;;;;;;;;;;;;8.47;71.73;99445.78;5072545;28;19916;-83
2024/03/04 00:39:41;;;;;;;;;;;;;;;8.48;71.93;99457.94;5072562;28;19916;-83
2024/03/04 00:42:07;;;;;;;;;;;;;;;8.51;72.16;99441.84;5072641;28;19912;-83
2024/03/04 00:44:32;;;;;;;;;;;;;;;8.49;72.05;99447.25;5072490;28;19923;-82
2024/03/04 00:46:57;;;;;;;;;;;;;;;8.49;72.11;99443.81;5071011;28;19919;-84
2024/03/04 00:49:23;;;;;;;;;;;;;;;8.50;70.33;99438.38;5072268;28;19939;-83
2024/03/04 00:51:48;;;;;;;;;;;;;;;8.50;72.09;99438.38;5072237;28;19916;-83
2024/03/04 00:54:13;;;;;;;;;;;;;;;8.53;72.16;99432.78;5072212;28;20049;-83
2024/03/04 00:56:39;;;;;;;;;;;;;;;8.56;70.59;99436.88;5070839;28;20324;-83
2024/03/04 00:59:07;;;;;;;;;;;;;;;8.54;72.05;99431.78;5072187;28;19969;-82
2024/03/04 01:01:32;;;;;;;;;;;;;;;8.55;70.94;99424.72;5071996;28;20438;-83
2024/03/04 01:03:57;;;;;;;;;;;;;;;8.51;71.69;99426.03;5071975;28;19912;-83
2024/03/04 01:06:23;;;;;;;;;;;;;;;8.51;73.07;99423.41;5071896;28;19966;-83
2024/03/04 01:08:48;;;;;;;;;;;;;;;8.52;73.09;99425.88;5071857;28;20349;-83
2024/03/04 01:11:13;;;;;;;;;;;;;;;8.50;72.66;99422.59;5071666;28;19982;-83
2024/03/04 01:13:39;;;;;;;;;;;;;;;8.54;71.22;99425.72;5071804;28;19919;-84
2024/03/04 01:16:05;;;;;;;;;;;;;;;8.56;70.90;99429.00;5071952;28;19995;-83
2024/03/04 01:18:31;;;;;;;;;;;;;;;8.56;72.19;99434.25;5071976;28;19913;-82
2024/03/04 01:20:56;;;;;;;;;;;;;;;8.58;72.38;99429.66;5071672;28;19919;-82
2024/03/04 01:23:23;;;;;;;;;;;;;;;8.57;73.63;99428.00;5071661;28;19912;-82
2024/03/04 01:25:48;;;;;;;;;;;;;;;8.57;71.62;99439.34;5071710;28;19965;-84
2024/03/04 01:28:14;;;;;;;;;;;;;;;8.55;72.47;99433.44;5071783;28;19999;-82
2024/03/04 01:30:39;;;;;;;;;;;;;;;8.52;73.56;99431.13;5071607;28;20389;-84
2024/03/04 01:33:07;;;;;;;;;;;;;;;8.51;74.12;99428.69;5070268;28;19924;-82
2024/03/04 01:35:33;;;;;;;;;;;;;;;8.51;73.73;99424.22;5071668;28;19948;-84
2024/03/04 01:37:59;;;;;;;;;;;;;;;8.58;71.28;99429.66;5071534;28;19920;-83
2024/03/04 01:40:25;;;;;;;;;;;;;;;8.59;72.16;99424.22;5071736;28;20385;-83
2024/03/04 01:42:50;;;;;;;;;;;;;;;8.59;73.07;99428.66;5071376;28;19999;-83
2024/03/04 01:45:23;;;;;;;;;;;;;;;8.56;73.30;99434.25;5071363;28;19912;-82
2024/03/04 01:47:49;;;;;;;;;;;;;;;8.55;73.95;99433.44;5069258;28;20361;-83
2024/03/04 01:50:14;;;;;;;;;;;;;;;8.58;74.30;99433.09;5071521;28;19916;-83
2024/03/04 01:52:40;;;;;;;;;;;;;;;8.60;73.37;99431.13;5071181;28;20412;-84
2024/03/04 01:55:06;;;;;;;;;;;;;;;8.65;73.09;99433.25;5069994;28;19920;-84
2024/03/04 01:57:31;;;;;;;;;;;;;;;8.67;71.74;99430.44;5071581;28;19919;-85
2024/03/04 01:59:57;;;;;;;;;;;;;;;8.67;72.13;99428.63;5071274;28;20437;-84
2024/03/04 02:02:22;;;;;;;;;;;;;;;8.66;73.41;99427.00;5071194;28;19924;-83
2024/03/04 02:04:48;;;;;;;;;;;;;;;8.73;71.06;99435.03;5070115;28;19913;-83
2024/03/04 02:07:15;;;;;;;;;;;;;;;8.70;73.19;99430.94;5071360;28;19912;-82
2024/03/04 02:09:41;;;;;;;;;;;;;;;8.69;73.94;99431.91;5071414;28;20440;-84
2024/03/04 02:12:06;;;;;;;;;;;;;;;8.67;73.90;99441.78;5071080;28;20302;-83
2024/03/04 02:14:32;;;;;;;;;;;;;;;8.75;71.74;99441.78;5071070;28;19913;-83
2024/03/04 02:16:57;;;;;;;;;;;;;;;8.77;72.13;99446.88;5071021;28;19912;-83
2024/03/04 02:19:22;;;;;;;;;;;;;;;8.77;71.75;99446.88;5071143;28;19923;-83
2024/03/04 02:21:50;;;;;;;;;;;;;;;8.73;73.88;99445.56;5071199;28;19966;-82
2024/03/04 02:24:16;;;;;;;;;;;;;;;8.72;73.84;99444.75;5071305;28;19919;-82
2024/03/04 02:26:42;;;;;;;;;;;;;;;8.73;74.21;99438.50;5071242;28;19991;-82
2024/03/04 02:29:10;;;;;;;;;;;;;;;8.73;74.47;99449.03;5071185;28;19912;-82
2024/03/04 02:31:36;;;;;;;;;;;;;;;8.78;73.29;99444.06;5071203;28;19920;-83
2024/03/04 02:34:01;;;;;;;;;;;;;;;8.81;73.18;99445.53;5071030;28;20026;-84
2024/03/04 02:36:26;;;;;;;;;;;;;;;8.78;74.26;99441.44;5070998;28;20408;-82
2024/03/04 02:38:52;;;;;;;;;;;;;;;8.81;74.75;99441.09;5071021;28;19927;-83
2024/03/04 02:41:18;;;;;;;;;;;;;;;8.83;73.84;99439.13;5069469;28;19912;-82
2024/03/04 02:43:46;;;;;;;;;;;;;;;8.86;73.04;99444.03;5070654;28;19912;-84
2024/03/04 02:46:11;;;;;;;;;;;;;;;8.88;73.24;99447.31;5070841;28;19917;-83
2024/03/04 02:48:36;;;;;;;;;;;;;;;8.90;72.16;99444.53;5070862;28;20061;-83
2024/03/04 02:51:02;;;;;;;;;;;;;;;8.90;71.62;99444.53;5070890;28;19921;-83
2024/03/04 02:53:27;;;;;;;;;;;;;;;8.89;72.82;99448.16;5071081;28;20378;-82
2024/03/04 02:55:53;;;;;;;;;;;;;;;8.88;73.37;99449.97;5070905;28;19988;-84
2024/03/04 02:58:18;;;;;;;;;;;;;;;8.86;73.85;99449.31;5069663;28;20388;-84
2024/03/04 03:00:43;;;;;;;;;;;;;;;8.86;74.58;99449.31;5072350;28;19946;-84
2024/03/04 03:03:08;;;;;;;;;;;;;;;8.88;73.94;99447.31;5074267;28;19943;-83
2024/03/04 03:05:34;;;;;;;;;;;;;;;8.94;74.16;99451.13;5074375;28;20301;-84
2024/03/04 03:07:59;;;;;;;;;;;;;;;8.94;74.31;99443.22;5074318;28;19966;-83
2024/03/04 03:10:24;;;;;;;;;;;;;;;8.98;74.10;99449.78;5074302;28;19913;-82
2024/03/04 03:12:50;;;;;;;;;;;;;;;8.99;73.33;99443.53;5074333;28;19970;-83
2024/03/04 03:15:16;;;;;;;;;;;;;;;8.98;73.57;99441.91;5074134;28;19912;-83
2024/03/04 03:17:41;;;;;;;;;;;;;;;9.01;73.87;99446.00;5074268;28;20393;-84
2024/03/04 03:20:16;;;;;;;;;;;;;;;8.99;74.03;99440.09;5074176;28;20348;-82
2024/03/04 03:22:45;;;;;;;;;;;;;;;8.94;73.92;99439.78;5073977;28;20006;-83
2024/03/04 03:25:11;;;;;;;;;;;;;;;8.97;73.16;99447.34;5074017;28;19991;-83
2024/03/04 03:27:37;;;;;;;;;;;;;;;8.99;72.22;99455.88;5072771;28;20452;-84
2024/03/04 03:30:04;;;;;;;;;;;;;;;8.62;72.70;99394.09;5073963;28;20008;-82
2024/03/04 03:32:30;;;;;;;;;;;;;;;8.97;71.77;99448.16;5073735;28;19956;-83
2024/03/04 03:34:55;;;;;;;;;;;;;;;8.94;71.73;99447.69;5073822;28;19912;-82
2024/03/04 03:37:20;;;;;;;;;;;;;;;8.93;72.43;99446.84;5073462;28;19912;-83
2024/03/04 03:39:45;;;;;;;;;;;;;;;8.88;73.96;99452.59;5073512;28;20340;-83
2024/03/04 03:42:11;;;;;;;;;;;;;;;8.86;74.21;99459.03;5073435;28;20045;-84
2024/03/04 03:44:36;;;;;;;;;;;;;;;8.84;74.33;99458.38;5073450;28;20348;-83
2024/03/04 03:47:01;;;;;;;;;;;;;;;8.83;75.09;99457.53;5073608;28;19916;-84
2024/03/04 03:49:27;;;;;;;;;;;;;;;8.84;74.44;99461.00;5073490;28;20305;-83
2024/03/04 03:51:52;;;;;;;;;;;;;;;8.84;74.64;99464.44;5073124;28;19931;-84
2024/03/04 03:54:17;;;;;;;;;;;;;;;8.92;74.04;99468.91;5072054;28;19913;-83
2024/03/04 03:56:43;;;;;;;;;;;;;;;8.91;74.55;99475.13;5073210;28;19923;-83
2024/03/04 03:59:08;;;;;;;;;;;;;;;8.95;73.73;99476.47;5073374;28;19986;-83
2024/03/04 04:01:33;;;;;;;;;;;;;;;8.98;74.13;99484.03;5073248;28;20301;-82
2024/03/04 04:03:59;;;;;;;;;;;;;;;9.00;74.82;99474.16;5073260;28;19919;-83
2024/03/04 04:06:24;;;;;;;;;;;;;;;9.01;74.43;99467.88;5073150;28;19951;-82
2024/03/04 04:08:49;;;;;;;;;;;;;;;9.00;74.97;99481.22;5073030;28;19919;-82
2024/03/04 04:11:14;;;;;;;;;;;;;;;8.97;74.95;99476.31;5072111;28;19927;-83
2024/03/04 04:13:40;;;;;;;;;;;;;;;8.98;73.64;99476.13;5071883;28;19913;-83
2024/03/04 04:16:05;;;;;;;;;;;;;;;9.00;74.85;99466.25;5073073;28;19970;-82
2024/03/04 04:18:30;;;;;;;;;;;;;;;9.00;75.09;99471.50;5072899;28;19919;-83
2024/03/04 04:20:56;;;;;;;;;;;;;;;9.01;74.92;99470.53;5072884;28;19912;-84
2024/03/04 04:23:22;;;;;;;;;;;;;;;9.03;74.94;99475.63;5072925;28;19913;-83
2024/03/04 04:25:47;;;;;;;;;;;;;;;9.04;75.29;99474.63;5072681;28;19916;-83
2024/03/04 04:28:12;;;;;;;;;;;;;;;9.09;74.87;99474.94;5072551;28;19942;-83
2024/03/04 04:30:40;;;;;;;;;;;;;;;9.08;75.04;99473.31;5072500;28;20300;-83
2024/03/04 04:33:05;;;;;;;;;;;;;;;9.07;75.14;99477.75;5072765;28;20003;-83
2024/03/04 04:35:30;;;;;;;;;;;;;;;9.06;74.93;99473.47;5072608;28;19995;-84
2024/03/04 04:37:55;;;;;;;;;;;;;;;9.02;75.41;99472.16;5072360;28;19991;-83
2024/03/04 04:40:21;;;;;;;;;;;;;;;9.03;75.22;99471.19;5072266;28;20391;-84
2024/03/04 04:42:46;;;;;;;;;;;;;;;9.01;75.23;99467.06;5072482;28;19944;-84
2024/03/04 04:45:11;;;;;;;;;;;;;;;9.01;74.70;99473.16;5072519;28;19912;-84
2024/03/04 04:47:37;;;;;;;;;;;;;;;9.05;74.69;99469.19;5072337;28;19955;-84
2024/03/04 04:50:03;;;;;;;;;;;;;;;9.04;74.97;99472.00;5072428;28;19923;-84
2024/03/04 04:52:28;;;;;;;;;;;;;;;9.06;74.94;99473.47;5072099;28;19921;-84
2024/03/04 04:54:53;;;;;;;;;;;;;;;9.08;73.92;99481.19;5072060;28;20419;-83
2024/03/04 04:57:19;;;;;;;;;;;;;;;9.06;74.59;99483.19;5071914;28;19912;-83
2024/03/04 04:59:45;;;;;;;;;;;;;;;9.06;75.13;99483.19;5072074;28;19944;-83
2024/03/04 05:02:11;;;;;;;;;;;;;;;9.07;74.99;99483.00;5071985;28;19959;-83
2024/03/04 05:04:36;;;;;;;;;;;;;;;9.06;75.52;99484.00;5072234;28;19912;-84
2024/03/04 05:07:01;;;;;;;;;;;;;;;9.10;74.39;99487.94;5070857;28;19920;-84
2024/03/04 05:09:27;;;;;;;;;;;;;;;9.11;74.53;99492.22;5070861;28;19913;-83
2024/03/04 05:11:53;;;;;;;;;;;;;;;9.10;75.00;99492.38;5071746;28;19917;-84
2024/03/04 05:14:19;;;;;;;;;;;;;;;9.08;74.91;99504.91;5071758;28;19920;-83
2024/03/04 05:16:44;;;;;;;;;;;;;;;9.06;74.95;99498.97;5071855;28;19912;-83
2024/03/04 05:19:09;;;;;;;;;;;;;;;9.02;74.48;99502.94;5071958;28;19919;-84
2024/03/04 05:21:34;;;;;;;;;;;;;;;9.02;73.68;99514.31;5071929;28;19912;-84
2024/03/04 05:24:00;;;;;;;;;;;;;;;9.03;74.63;99507.22;5071744;28;19919;-84
2024/03/04 05:26:25;;;;;;;;;;;;;;;9.05;74.69;99513.97;5071767;28;20385;-84
2024/03/04 05:28:50;;;;;;;;;;;;;;;9.04;73.51;99519.41;5071684;28;19913;-84
2024/03/04 05:31:16;;;;;;;;;;;;;;;9.02;74.30;99524.84;5071768;28;19917;-83
2024/03/04 05:33:42;;;;;;;;;;;;;;;9.02;73.70;99516.94;5071768;28;19939;-83
2024/03/04 05:36:08;;;;;;;;;;;;;;;9.03;74.07;99520.38;5071597;28;19913;-83
2024/03/04 05:38:34;;;;;;;;;;;;;;;9.06;74.43;99530.59;5071399;28;19927;-83
2024/03/04 05:40:59;;;;;;;;;;;;;;;9.09;74.17;99524.97;5071566;28;20006;-83
2024/03/04 05:43:24;;;;;;;;;;;;;;;9.13;74.53;99531.56;5071670;28;19912;-83
2024/03/04 05:45:50;;;;;;;;;;;;;;;9.14;74.63;99527.94;5071579;28;19920;-83
2024/03/04 05:48:15;;;;;;;;;;;;;;;9.19;74.07;99529.06;5071504;28;20003;-83
2024/03/04 05:50:40;;;;;;;;;;;;;;;9.21;73.96;99529.72;5071457;28;20054;-83
2024/03/04 05:53:06;;;;;;;;;;;;;;;9.24;74.17;99526.75;5071591;28;19921;-83
2024/03/04 05:55:31;;;;;;;;;;;;;;;9.24;75.32;99537.28;5071252;28;20385;-84
2024/03/04 05:57:56;;;;;;;;;;;;;;;9.23;74.72;99538.28;5070016;28;19919;-84
2024/03/04 06:00:21;;;;;;;;;;;;;;;9.27;75.27;99544.03;5071295;28;19912;-83
2024/03/04 06:02:47;;;;;;;;;;;;;;;9.28;74.71;99545.66;5071161;28;19928;-84
2024/03/04 06:05:13;;;;;;;;;;;;;;;9.30;75.12;99546.31;5071299;28;20019;-83
2024/03/04 06:07:38;;;;;;;;;;;;;;;9.33;74.15;99543.34;5071156;28;19923;-82
2024/03/04 06:10:04;;;;;;;;;;;;;;;9.34;74.85;99546.81;5071359;28;19913;-83
2024/03/04 06:12:29;;;;;;;;;;;;;;;9.34;74.64;99550.25;5069677;28;19923;-83
2024/03/04 06:14:55;;;;;;;;;;;;;;;9.36;74.79;99553.53;5071045;28;19938;-83
2024/03/04 06:17:20;;;;;;;;;;;;;;;9.38;73.55;99551.56;5071420;28;19909;-83
2024/03/04 06:19:45;;;;;;;;;;;;;;;9.40;74.29;99551.38;5071339;28;19971;-84
2024/03/04 06:22:12;;;;;;;;;;;;;;;9.40;74.70;99548.75;5071427;28;19913;-83
2024/03/04 06:24:38;;;;;;;;;;;;;;;9.41;74.85;99550.41;5071395;28;20026;-83
2024/03/04 06:27:03;;;;;;;;;;;;;;;9.42;75.01;99549.41;5071339;28;19991;-82
2024/03/04 06:29:32;;;;;;;;;;;;;;;9.46;73.33;99551.53;5071277;28;19995;-83
2024/03/04 06:31:58;;;;;;;;;;;;;;;9.53;72.82;99554.31;5071183;28;20309;-83
2024/03/04 06:34:24;;;;;;;;;;;;;;;9.52;73.40;99548.22;5072043;28;19913;-82
2024/03/04 06:36:50;;;;;;;;;;;;;;;9.51;73.40;99548.38;5074963;28;19913;-83
2024/03/04 06:39:16;;;;;;;;;;;;;;;9.53;73.94;99555.13;5074923;28;20305;-83
2024/03/04 06:41:42;;;;;;;;;;;;;;;9.60;72.29;99554.44;5075653;28;19913;-83
2024/03/04 06:44:07;;;;;;;;;;;;;;;9.62;71.69;99557.72;5075439;28;20400;-83
2024/03/04 06:46:33;;;;;;;;;;;;;;;9.61;72.53;99543.72;5074817;28;19912;-84
2024/03/04 06:48:59;;;;;;;;;;;;;;;9.62;73.36;99547.19;5074600;28;20373;-83
2024/03/04 06:51:24;;;;;;;;;;;;;;;9.63;73.69;99549.66;5074633;28;19917;-83
2024/03/04 06:53:49;;;;;;;;;;;;;;;9.67;73.23;99544.88;5074774;28;19912;-84
2024/03/04 06:56:14;;;;;;;;;;;;;;;9.69;73.71;99548.16;5074405;28;19951;-83
2024/03/04 06:58:40;;;;;;;;;;;;;;;9.72;73.17;99540.75;5074247;28;19908;-83
2024/03/04 07:01:05;;;;;;;;;;;;;;;9.74;74.17;99546.66;5074303;28;19962;-83
2024/03/04 07:03:31;;;;;;;;;;;;;;;9.77;72.35;99542.84;5074220;28;20015;-84
2024/03/04 07:05:56;;;;;;;;;;;;;;;9.82;71.69;99546.63;5074294;28;19935;-82
2024/03/04 07:08:21;;;;;;;;;;;;;;;9.79;72.63;99540.88;5074292;28;19912;-84
2024/03/04 07:10:46;;;;;;;;;;;;;;;9.81;73.23;99538.88;5074298;28;19920;-84
2024/03/04 07:13:12;;;;;;;;;;;;;;;9.87;72.97;99543.47;5074266;28;20086;-84
2024/03/04 07:15:37;;;;;;;;;;;;;;;9.93;71.50;99550.69;5074287;28;19995;-82
2024/03/04 07:18:02;;;;;;;;;;;;;;;9.92;71.70;99540.31;5073953;28;20393;-83
2024/03/04 07:20:28;;;;;;;;;;;;;;;9.91;71.57;99547.38;5073932;28;19912;-83
2024/03/04 07:22:53;;;;;;;;;;;;;;;9.92;72.77;99542.94;5073977;28;19913;-83
2024/03/04 07:25:18;;;;;;;;;;;;;;;9.93;72.80;99542.75;5073910;28;19912;-83
2024/03/04 07:27:44;;;;;;;;;;;;;;;9.96;71.80;99544.22;5073998;28;19970;-83
2024/03/04 07:30:09;;;;;;;;;;;;;;;9.97;71.98;99544.06;5072635;28;19912;-83
2024/03/04 07:32:34;;;;;;;;;;;;;;;10.01;71.28;99544.53;5072485;28;19924;-83
2024/03/04 07:35:00;;;;;;;;;;;;;;;10.00;71.10;99546.34;5073823;28;20000;-82
2024/03/04 07:37:25;;;;;;;;;;;;;;;9.99;71.29;99542.06;5073787;28;19970;-83
2024/03/04 07:39:50;;;;;;;;;;;;;;;10.01;71.86;99534.81;5073685;28;20376;-83
2024/03/04 07:42:16;;;;;;;;;;;;;;;10.05;70.88;99532.63;5073732;28;20374;-82
2024/03/04 07:44:41;;;;;;;;;;;;;;;10.08;71.49;99541.03;5073633;28;20431;-83
2024/03/04 07:47:07;;;;;;;;;;;;;;;10.11;72.30;99532.75;5073757;28;20293;-83
2024/03/04 07:49:32;;;;;;;;;;;;;;;10.16;72.51;99534.88;5073530;28;19924;-83
2024/03/04 07:52:00;;;;;;;;;;;;;;;10.21;71.78;99542.28;5073402;28;20014;-83
2024/03/04 07:54:25;;;;;;;;;;;;;;;10.24;72.66;99545.41;5073605;28;19913;-82
2024/03/04 07:56:50;;;;;;;;;;;;;;;10.26;72.09;99539.94;5073462;28;19920;-84
2024/03/04 07:59:16;;;;;;;;;;;;;;;10.29;72.08;99540.41;5072059;28;19920;-83
2024/03/04 08:01:45;;;;;;;;;;;;;;;10.31;72.07;99543.69;5073365;28;19933;-82
2024/03/04 08:04:10;;;;;;;;;;;;;;;10.36;71.43;99545.81;5073364;28;19913;-82
2024/03/04 08:06:35;;;;;;;;;;;;;;;10.41;71.70;99548.78;5073245;28;19913;-83
2024/03/04 08:09:00;;;;;;;;;;;;;;;10.48;71.51;99542.59;5073228;28;19912;-83
2024/03/04 08:11:26;;;;;;;;;;;;;;;10.52;71.78;99548.34;5073143;28;20377;-83
2024/03/04 08:13:52;;;;;;;;;;;;;;;10.57;70.83;99550.47;5073152;28;19912;-83
2024/03/04 08:16:17;;;;;;;;;;;;;;;10.59;70.78;99545.81;5073005;28;19912;-83
2024/03/04 08:18:42;;;;;;;;;;;;;;;10.61;71.70;99543.81;5072880;28;19919;-83
2024/03/04 08:21:13;;;;;;;;;;;;;;;10.67;71.07;99540.47;5072957;28;19917;-82
2024/03/04 08:23:40;;;;;;;;;;;;;;;10.72;71.94;99538.13;5072938;28;19913;-82
2024/03/04 08:26:06;;;;;;;;;;;;;;;10.78;71.29;99537.41;5072988;28;19917;-83
2024/03/04 08:28:31;;;;;;;;;;;;;;;10.82;71.61;99534.22;5071275;28;20355;-84
2024/03/04 08:30:56;;;;;;;;;;;;;;;10.88;71.76;99537.97;5072505;28;20004;-83
2024/03/04 08:33:21;;;;;;;;;;;;;;;10.99;70.72;99548.09;5072425;28;19945;-83
2024/03/04 08:35:47;;;;;;;;;;;;;;;11.00;70.75;99555.00;5072330;28;20430;-83
2024/03/04 08:38:12;;;;;;;;;;;;;;;11.04;70.81;99544.91;5072417;28;19912;-84
2024/03/04 08:40:38;;;;;;;;;;;;;;;11.11;71.55;99553.75;5072349;28;19916;-83
2024/03/04 08:43:04;;;;;;;;;;;;;;;11.14;71.44;99545.44;5072449;28;20009;-84
2024/03/04 08:45:29;;;;;;;;;;;;;;;11.17;70.69;99539.84;5072469;28;19995;-83
2024/03/04 08:47:55;;;;;;;;;;;;;;;11.24;69.57;99537.28;5072365;28;19918;-83
2024/03/04 08:50:20;;;;;;;;;;;;;;;11.28;69.52;99526.16;5072393;28;19919;-83
2024/03/04 08:52:45;;;;;;;;;;;;;;;11.39;70.29;99530.16;5072168;28;19920;-83
2024/03/04 08:55:11;;;;;;;;;;;;;;;11.59;69.27;99528.59;5070787;28;19920;-83
2024/03/04 08:57:37;;;;;;;;;;;;;;;11.63;68.74;99531.69;5071588;28;19912;-83
2024/03/04 09:00:04;;;;;;;;;;;;;;;11.66;69.37;99534.78;5071935;28;20055;-83
2024/03/04 09:02:29;;;;;;;;;;;;;;;11.70;68.96;99524.66;5071819;28;19927;-83
2024/03/04 09:04:55;;;;;;;;;;;;;;;11.73;69.18;99530.38;5071924;28;19912;-82
2024/03/04 09:07:21;;;;;;;;;;;;;;;11.83;68.56;99524.00;5072070;28;19965;-83
2024/03/04 09:09:53;;;;;;;;;;;;;;;11.91;67.77;99519.47;5071927;28;20355;-82
2024/03/04 09:12:18;;;;;;;;;;;;;;;11.95;68.44;99523.38;5071751;28;19917;-83
2024/03/04 09:14:44;;;;;;;;;;;;;;;11.99;68.85;99516.69;5071919;28;19995;-83
2024/03/04 09:17:09;;;;;;;;;;;;;;;12.13;67.92;99516.81;5071744;28;19959;-83
2024/03/04 09:19:37;;;;;;;;;;;;;;;12.25;67.31;99515.31;5071669;28;19912;-83
2024/03/04 09:22:03;;;;;;;;;;;;;;;12.30;68.04;99511.09;5071838;28;19916;-83
2024/03/04 09:24:29;;;;;;;;;;;;;;;12.41;67.40;99507.13;5071758;28;19912;-82
2024/03/04 09:26:54;;;;;;;;;;;;;;;12.52;67.42;99506.59;5071693;28;19920;-82
2024/03/04 09:29:19;;;;;;;;;;;;;;;12.61;67.34;99507.28;5071513;28;20511;-83
2024/03/04 09:31:45;;;;;;;;;;;;;;;12.69;66.61;99507.16;5071650;28;19924;-83
2024/03/04 09:34:10;;;;;;;;;;;;;;;12.73;66.55;99505.75;5071711;28;20320;-82
2024/03/04 09:36:35;;;;;;;;;;;;;;;12.77;66.69;99503.56;5071778;28;19913;-83
2024/03/04 09:39:01;;;;;;;;;;;;;;;12.85;66.64;99506.06;5070072;28;20317;-83
2024/03/04 09:41:29;;;;;;;;;;;;;;;12.92;66.50;99499.78;5071310;28;20008;-83
2024/03/04 09:43:55;;;;;;;;;;;;;;;12.98;66.20;99491.06;5071322;28;19909;-83
2024/03/04 09:46:20;;;;;;;;;;;;;;;13.09;66.04;99491.53;5071333;28;20487;-83
2024/03/04 09:48:47;;;;;;;;;;;;;;;13.22;65.58;99491.63;5071601;28;19943;-83
2024/03/04 09:51:14;;;;;;;;;;;;;;;13.24;65.48;99482.47;5071397;28;19970;-82
2024/03/04 09:53:39;;;;;;;;;;;;;;;13.29;65.03;99490.63;5069901;28;20015;-82
2024/03/04 09:56:04;;;;;;;;;;;;;;;13.33;64.89;99478.63;5071442;28;19944;-82
2024/03/04 09:58:33;;;;;;;;;;;;;;;13.35;64.76;99475.78;5071263;28;19913;-82
2024/03/04 10:00:59;;;;;;;;;;;;;;;13.41;64.66;99480.31;5071246;28;20454;-82
2024/03/04 10:03:25;;;;;;;;;;;;;;;13.54;64.63;99471.59;5069742;28;19920;-82
2024/03/04 10:05:50;;;;;;;;;;;;;;;13.59;63.98;99472.63;5071411;28;19995;-82
2024/03/04 10:08:15;;;;;;;;;;;;;;;13.63;63.97;99471.22;5071196;28;19912;-82
2024/03/04 10:10:40;;;;;;;;;;;;;;;13.68;64.26;99462.66;5074518;28;20312;-82
2024/03/04 10:13:10;;;;;;;;;;;;;;;13.68;63.63;99460.00;5074975;28;20015;-82
2024/03/04 10:15:35;;;;;;;;;;;;;;;13.73;63.55;99459.41;5074938;28;20328;-82
2024/03/04 10:18:10;;;;;;;;;;;;;;;13.80;63.65;99455.75;5073678;28;19912;-82
2024/03/04 10:20:35;;;;;;;;;;;;;;;13.86;63.42;99446.16;5075078;28;19912;-82
2024/03/04 10:23:02;;;;;;;;;;;;;;;13.90;62.78;99445.56;5075084;28;19946;-82
2024/03/04 10:25:28;;;;;;;;;;;;;;;13.87;62.01;99440.66;5075109;28;20013;-82
2024/03/04 10:27:53;;;;;;;;;;;;;;;13.94;62.66;99438.81;5075013;28;19955;-82
2024/03/04 10:30:19;;;;;;;;;;;;;;;14.06;62.80;99441.69;5074747;28;20342;-82
2024/03/04 10:32:46;;;;;;;;;;;;;;;14.15;62.48;99437.03;5074607;28;19916;-82
2024/03/04 10:35:11;;;;;;;;;;;;;;;14.20;61.67;99443.38;5074700;28;19923;-82
2024/03/04 10:37:37;;;;;;;;;;;;;;;14.23;61.89;99435.00;5074588;28;19917;-82
2024/03/04 10:40:04;;;;;;;;;;;;;;;14.26;62.12;99433.78;5074624;28;20546;-81
2024/03/04 10:42:29;;;;;;;;;;;;;;;14.27;62.38;99446.84;5074761;28;19916;-82
2024/03/04 10:44:54;;;;;;;;;;;;;;;14.25;62.37;99440.91;5074738;28;19913;-82
2024/03/04 10:47:21;;;;;;;;;;;;;;;14.27;62.29;99428.25;5074883;28;20399;-82
2024/03/04 10:49:48;;;;;;;;;;;;;;;14.18;62.70;99429.47;5074331;28;19930;-82
2024/03/04 10:52:13;;;;;;;;;;;;;;;14.20;62.74;99427.44;5074213;28;20955;-82
2024/03/04 10:54:39;;;;;;;;;;;;;;;14.21;62.48;99433.56;5074296;28;20381;-82
2024/03/04 10:57:07;;;;;;;;;;;;;;;14.23;62.47;99431.53;5074107;28;19912;-82
2024/03/04 10:59:39;;;;;;;;;;;;;;;14.25;62.66;99429.47;5074192;28;19913;-82
2024/03/04 11:02:19;;;;;;;;;;;;;;;14.23;62.53;99420.91;5073917;28;19920;-82
2024/03/04 11:04:45;;;;;;;;;;;;;;;14.26;62.03;99412.53;5073411;28;20253;-82
2024/03/04 11:07:11;;;;;;;;;;;;;;;14.31;62.31;99396.78;5073287;28;19923;-82
2024/03/04 11:09:38;;;;;;;;;;;;;;;14.43;62.46;99411.13;5071536;28;19995;-82
2024/03/04 11:12:05;;;;;;;;;;;;;;;14.54;61.96;99399.03;5072831;28;19976;-82
2024/03/04 11:14:38;;;;;;;;;;;;;;;14.53;61.72;99390.25;5071781;28;20360;-82
2024/03/04 11:17:26;;;;;;;;;;;;;;;14.56;61.51;99402.31;5071744;28;19912;-82
2024/03/04 11:19:52;;;;;;;;;;;;;;;14.57;61.08;99377.38;5072300;28;19942;-82
2024/03/04 11:22:17;;;;;;;;;;;;;;;14.63;60.76;99377.34;5072896;28;19912;-82
2024/03/04 11:24:46;;;;;;;;;;;;;;;14.80;60.67;99375.06;5072916;28;19916;-82
2024/03/04 11:27:12;;;;;;;;;;;;;;;14.98;60.56;99377.06;5073064;28;19939;-81
2024/03/04 11:29:37;;;;;;;;;;;;;;;15.01;60.45;99367.84;5072625;28;20412;-81
2024/03/04 11:32:09;;;;;;;;;;;;;;;15.00;60.65;99359.06;5072645;28;19916;-81
2024/03/04 11:34:54;;;;;;;;;;;;;;;15.16;60.33;99360.44;5072726;28;19913;-81
2024/03/04 11:37:19;;;;;;;;;;;;;;;15.38;59.98;99344.97;5067732;28;19912;-81
2024/03/04 11:39:45;;;;;;;;;;;;;;;15.60;59.68;99340.97;5072380;28;19912;-81
2024/03/04 11:42:30;;;;;;;;;;;;;;;15.83;58.93;99343.06;5072459;28;19995;-81
2024/03/04 11:44:55;;;;;;;;;;;;;;;15.98;58.87;99332.09;5072224;28;19913;-81
2024/03/04 11:47:28;;;;;;;;;;;;;;;15.98;58.77;99326.78;5071115;28;19919;-81
2024/03/04 11:49:55;;;;;;;;;;;;;;;16.01;58.25;99327.16;5072677;28;19979;-81
2024/03/04 11:52:22;;;;;;;;;;;;;;;16.14;57.32;99321.69;5072358;28;20446;-81
2024/03/04 11:54:48;;;;;;;;;;;;;;;16.26;55.99;99316.47;5072401;28;19948;-81
2024/03/04 11:57:14;;;;;;;;;;;;;;;16.34;57.12;99318.84;5072212;28;19917;-81
2024/03/04 11:59:40;;;;;;;;;;;;;;;16.42;57.37;99315.91;5072247;28;19919;-81
2024/03/04 12:02:09;;;;;;;;;;;;;;;16.43;57.78;99306.88;5006955;28;1847187;-81
2024/03/04 12:04:35;;;;;;;;;;;;;;;16.40;57.10;99312.66;5071866;28;20353;-81
2024/03/04 12:07:01;;;;;;;;;;;;;;;16.34;57.74;99305.53;5073106;28;20005;-81
2024/03/04 12:09:26;;;;;;;;;;;;;;;16.23;56.69;99298.25;5071921;28;20231;-81
2024/03/04 12:11:52;;;;;;;;;;;;;;;16.24;57.53;99299.06;5073028;28;19921;-81
2024/03/04 12:14:17;;;;;;;;;;;;;;;16.26;57.69;99289.81;5072763;28;19912;-81
2024/03/04 12:16:43;;;;;;;;;;;;;;;16.26;57.83;99283.69;5071382;28;19924;-81
2024/03/04 12:19:08;;;;;;;;;;;;;;;16.17;57.54;99283.16;5072583;28;19919;-81
2024/03/04 12:21:34;;;;;;;;;;;;;;;16.10;58.64;99277.91;5072722;28;20305;-81
2024/03/04 12:23:59;;;;;;;;;;;;;;;15.99;58.21;99275.16;5072937;28;20343;-81
2024/03/04 12:26:24;;;;;;;;;;;;;;;15.87;56.92;99275.03;5072772;28;20351;-81
2024/03/04 12:28:56;;;;;;;;;;;;;;;15.79;57.51;99270.00;5071305;28;20003;-81
2024/03/04 12:31:22;;;;;;;;;;;;;;;15.74;57.74;99269.84;5071986;28;19925;-81
2024/03/04 12:33:47;;;;;;;;;;;;;;;15.69;56.99;99259.03;5070753;28;19912;-81
2024/03/04 12:36:12;;;;;;;;;;;;;;;15.73;58.31;99255.72;5072440;28;20367;-81
2024/03/04 12:38:38;;;;;;;;;;;;;;;15.74;58.62;99245.88;5072603;28;19904;-81
2024/03/04 12:41:03;;;;;;;;;;;;;;;15.72;58.08;99243.44;5072394;28;20351;-81
2024/03/04 12:43:28;;;;;;;;;;;;;;;15.71;57.80;99241.81;5072521;28;20341;-81
2024/03/04 12:45:54;;;;;;;;;;;;;;;15.73;57.51;99238.94;5072427;28;20506;-81